sensor_id;sensor_type;location;lat;lon;timestamp;pressure;altitude;pressure_sealevel;temperature;humidity
60019;BME280;45870;42.528;26.740;2022-07-25T00:00:44;99412.16;;;26.89;45.90
60019;BME280;45870;42.528;26.740;2022-07-25T00:03:10;99411.38;;;26.88;45.29
60019;BME280;45870;42.528;26.740;2022-07-25T00:05:35;99415.50;;;26.70;46.17
60019;BME280;45870;42.528;26.740;2022-07-25T00:08:01;99390.03;;;26.28;47.08
60019;BME280;45870;42.528;26.740;2022-07-25T00:10:27;99368.00;;;26.19;46.01
60019;BME280;45870;42.528;26.740;2022-07-25T00:12:52;99423.56;;;26.75;45.51
60019;BME280;45870;42.528;26.740;2022-07-25T00:15:18;99413.09;;;26.56;45.96
60019;BME280;45870;42.528;26.740;2022-07-25T00:17:44;99417.56;;;26.37;45.72
60019;BME280;45870;42.528;26.740;2022-07-25T00:20:10;99412.53;;;25.94;47.52
60019;BME280;45870;42.528;26.740;2022-07-25T00:22:39;99409.75;;;25.81;48.35
60019;BME280;45870;42.528;26.740;2022-07-25T00:25:05;99393.78;;;25.99;48.29
60019;BME280;45870;42.528;26.740;2022-07-25T00:27:31;99263.88;;;24.89;48.48
60019;BME280;45870;42.528;26.740;2022-07-25T00:29:57;99398.44;;;25.87;48.21
60019;BME280;45870;42.528;26.740;2022-07-25T00:32:22;99416.31;;;26.95;45.56
60019;BME280;45870;42.528;26.740;2022-07-25T00:34:48;99427.38;;;27.35;44.63
60019;BME280;45870;42.528;26.740;2022-07-25T00:37:14;99432.56;;;26.48;46.40
60019;BME280;45870;42.528;26.740;2022-07-25T00:39:39;99440.19;;;27.39;44.36
60019;BME280;45870;42.528;26.740;2022-07-25T00:42:05;99348.31;;;26.21;45.64
60019;BME280;45870;42.528;26.740;2022-07-25T00:44:32;99457.72;;;26.79;45.65
60019;BME280;45870;42.528;26.740;2022-07-25T00:46:58;99450.09;;;27.12;44.49
60019;BME280;45870;42.528;26.740;2022-07-25T00:49:24;99451.41;;;27.55;43.60
60019;BME280;45870;42.528;26.740;2022-07-25T00:51:51;99451.41;;;27.30;44.02
60019;BME280;45870;42.528;26.740;2022-07-25T00:54:17;99463.72;;;26.45;46.33
60019;BME280;45870;42.528;26.740;2022-07-25T00:56:44;99463.88;;;26.15;46.87
60019;BME280;45870;42.528;26.740;2022-07-25T00:59:10;99448.81;;;26.25;46.40
60019;BME280;45870;42.528;26.740;2022-07-25T01:01:37;99469.47;;;26.40;46.70
60019;BME280;45870;42.528;26.740;2022-07-25T01:04:04;99477.19;;;26.46;46.65
60019;BME280;45870;42.528;26.740;2022-07-25T01:06:30;99483.66;;;26.38;46.46
60019;BME280;45870;42.528;26.740;2022-07-25T01:08:56;99480.63;;;25.65;48.76
60019;BME280;45870;42.528;26.740;2022-07-25T01:11:23;99467.56;;;25.33;49.50
60019;BME280;45870;42.528;26.740;2022-07-25T01:13:49;99459.78;;;25.26;50.06
60019;BME280;45870;42.528;26.740;2022-07-25T01:16:15;99461.16;;;25.62;49.84
60019;BME280;45870;42.528;26.740;2022-07-25T01:18:40;99458.31;;;25.70;49.74
60019;BME280;45870;42.528;26.740;2022-07-25T01:21:07;99441.22;;;25.89;49.50
60019;BME280;45870;42.528;26.740;2022-07-25T01:23:32;99453.13;;;25.69;50.35
60019;BME280;45870;42.528;26.740;2022-07-25T01:25:58;99432.47;;;25.54;50.73
60019;BME280;45870;42.528;26.740;2022-07-25T01:28:24;99449.66;;;26.05;50.11
60019;BME280;45870;42.528;26.740;2022-07-25T01:30:50;99437.81;;;25.71;51.68
60019;BME280;45870;42.528;26.740;2022-07-25T01:33:17;99433.25;;;25.75;52.02
60019;BME280;45870;42.528;26.740;2022-07-25T01:35:43;99419.69;;;25.62;52.37
60019;BME280;45870;42.528;26.740;2022-07-25T01:38:10;99416.06;;;25.28;53.46
60019;BME280;45870;42.528;26.740;2022-07-25T01:40:36;99408.69;;;25.74;52.26
60019;BME280;45870;42.528;26.740;2022-07-25T01:43:02;99401.06;;;25.17;53.98
60019;BME280;45870;42.528;26.740;2022-07-25T01:45:28;99388.75;;;25.48;52.80
60019;BME280;45870;42.528;26.740;2022-07-25T01:47:54;99381.94;;;25.66;51.54
60019;BME280;45870;42.528;26.740;2022-07-25T01:50:19;99360.31;;;25.80;51.00
60019;BME280;45870;42.528;26.740;2022-07-25T01:52:45;99395.56;;;26.40;49.72
60019;BME280;45870;42.528;26.740;2022-07-25T01:55:11;99371.56;;;26.56;48.59
60019;BME280;45870;42.528;26.740;2022-07-25T01:57:38;99394.16;;;26.83;48.48
60019;BME280;45870;42.528;26.740;2022-07-25T02:00:07;99340.66;;;26.18;49.00
60019;BME280;45870;42.528;26.740;2022-07-25T02:02:33;99354.72;;;26.61;48.36
60019;BME280;45870;42.528;26.740;2022-07-25T02:05:02;99304.56;;;26.14;48.85
60019;BME280;45870;42.528;26.740;2022-07-25T02:07:28;99361.75;;;26.59;48.04
60019;BME280;45870;42.528;26.740;2022-07-25T02:09:53;99145.56;;;25.11;48.52
60019;BME280;45870;42.528;26.740;2022-07-25T02:12:19;99356.22;;;26.59;47.94
60019;BME280;45870;42.528;26.740;2022-07-25T02:14:45;99313.28;;;26.65;46.40
60019;BME280;45870;42.528;26.740;2022-07-25T02:17:10;99360.53;;;27.08;46.10
60019;BME280;45870;42.528;26.740;2022-07-25T02:19:36;99359.63;;;27.04;46.57
60019;BME280;45870;42.528;26.740;2022-07-25T02:22:02;99350.06;;;27.02;46.53
60019;BME280;45870;42.528;26.740;2022-07-25T02:24:28;99302.69;;;26.67;46.02
60019;BME280;45870;42.528;26.740;2022-07-25T02:26:54;99336.56;;;26.76;46.66
60019;BME280;45870;42.528;26.740;2022-07-25T02:29:20;99328.06;;;26.69;46.96
60019;BME280;45870;42.528;26.740;2022-07-25T02:31:45;99329.84;;;27.01;45.68
60019;BME280;45870;42.528;26.740;2022-07-25T02:34:11;99326.22;;;26.73;46.32
60019;BME280;45870;42.528;26.740;2022-07-25T02:36:39;99311.34;;;26.65;45.94
60019;BME280;45870;42.528;26.740;2022-07-25T02:39:05;99331.16;;;27.19;45.36
60019;BME280;45870;42.528;26.740;2022-07-25T02:41:31;99354.03;;;27.88;43.31
60019;BME280;45870;42.528;26.740;2022-07-25T02:43:57;99379.09;;;29.04;40.93
60019;BME280;45870;42.528;26.740;2022-07-25T02:46:23;99388.63;;;29.42;39.70
60019;BME280;45870;42.528;26.740;2022-07-25T02:48:49;99007.91;;;27.77;38.09
60019;BME280;45870;42.528;26.740;2022-07-25T02:51:14;99410.19;;;28.44;42.06
60019;BME280;45870;42.528;26.740;2022-07-25T02:53:40;99428.53;;;27.73;43.82
60019;BME280;45870;42.528;26.740;2022-07-25T02:56:06;99420.91;;;28.61;41.71
60019;BME280;45870;42.528;26.740;2022-07-25T02:58:32;99454.53;;;30.18;38.68
60019;BME280;45870;42.528;26.740;2022-07-25T03:00:58;99456.97;;;30.00;38.45
60019;BME280;45870;42.528;26.740;2022-07-25T03:03:24;99462.84;;;29.95;38.79
60019;BME280;45870;42.528;26.740;2022-07-25T03:05:49;99480.41;;;29.61;39.92
60019;BME280;45870;42.528;26.740;2022-07-25T03:08:15;99456.47;;;29.21;40.60
60019;BME280;45870;42.528;26.740;2022-07-25T03:10:41;99453.84;;;29.63;39.30
60019;BME280;45870;42.528;26.740;2022-07-25T03:13:07;99422.19;;;28.16;42.74
60019;BME280;45870;42.528;26.740;2022-07-25T03:15:33;99426.47;;;28.61;42.05
60019;BME280;45870;42.528;26.740;2022-07-25T03:17:58;99430.44;;;28.60;42.04
60019;BME280;45870;42.528;26.740;2022-07-25T03:20:24;99418.66;;;28.04;43.54
60019;BME280;45870;42.528;26.740;2022-07-25T03:22:50;99402.75;;;27.73;44.30
60019;BME280;45870;42.528;26.740;2022-07-25T03:25:15;99403.88;;;27.84;44.20
60019;BME280;45870;42.528;26.740;2022-07-25T03:27:41;99407.59;;;29.01;41.51
60019;BME280;45870;42.528;26.740;2022-07-25T03:30:08;99403.66;;;29.37;40.65
60019;BME280;45870;42.528;26.740;2022-07-25T03:32:34;99397.72;;;28.85;41.71
60019;BME280;45870;42.528;26.740;2022-07-25T03:35:00;99388.34;;;28.26;42.77
60019;BME280;45870;42.528;26.740;2022-07-25T03:37:26;99385.84;;;28.53;42.19
60019;BME280;45870;42.528;26.740;2022-07-25T03:39:51;99393.34;;;28.37;42.49
60019;BME280;45870;42.528;26.740;2022-07-25T03:42:17;99388.03;;;27.85;43.36
60019;BME280;45870;42.528;26.740;2022-07-25T03:44:43;99392.47;;;28.48;41.79
60019;BME280;45870;42.528;26.740;2022-07-25T03:47:09;99410.09;;;29.06;40.66
60019;BME280;45870;42.528;26.740;2022-07-25T03:49:36;99423.00;;;28.64;42.13
60019;BME280;45870;42.528;26.740;2022-07-25T03:52:01;99415.06;;;29.51;40.22
60019;BME280;45870;42.528;26.740;2022-07-25T03:54:27;99415.75;;;29.67;39.61
60019;BME280;45870;42.528;26.740;2022-07-25T03:56:53;99411.69;;;29.42;40.49
60019;BME280;45870;42.528;26.740;2022-07-25T03:59:20;99418.13;;;29.85;39.95
60019;BME280;45870;42.528;26.740;2022-07-25T04:01:48;99412.31;;;30.16;38.38
60019;BME280;45870;42.528;26.740;2022-07-25T04:04:15;99418.47;;;31.56;35.73
60019;BME280;45870;42.528;26.740;2022-07-25T04:06:41;99419.22;;;32.71;33.98
60019;BME280;45870;42.528;26.740;2022-07-25T04:09:09;99419.34;;;32.89;33.81
60019;BME280;45870;42.528;26.740;2022-07-25T04:11:35;99430.34;;;32.64;34.23
60019;BME280;45870;42.528;26.740;2022-07-25T04:14:02;99416.81;;;32.70;33.65
60019;BME280;45870;42.528;26.740;2022-07-25T04:16:29;99437.94;;;33.22;32.71
60019;BME280;45870;42.528;26.740;2022-07-25T04:18:54;99436.22;;;33.89;31.85
60019;BME280;45870;42.528;26.740;2022-07-25T04:21:22;99448.78;;;33.34;32.74
60019;BME280;45870;42.528;26.740;2022-07-25T04:23:48;99454.25;;;33.92;31.59
60019;BME280;45870;42.528;26.740;2022-07-25T04:26:14;99449.19;;;31.93;35.23
60019;BME280;45870;42.528;26.740;2022-07-25T04:28:41;99444.97;;;32.06;34.90
60019;BME280;45870;42.528;26.740;2022-07-25T04:31:06;99453.84;;;32.15;34.52
60019;BME280;45870;42.528;26.740;2022-07-25T04:33:32;99444.53;;;32.04;34.64
60019;BME280;45870;42.528;26.740;2022-07-25T04:36:00;99422.38;;;32.66;33.82
60019;BME280;45870;42.528;26.740;2022-07-25T04:38:26;99479.69;;;32.49;34.42
60019;BME280;45870;42.528;26.740;2022-07-25T04:40:52;99456.38;;;34.41;30.99
60019;BME280;45870;42.528;26.740;2022-07-25T04:43:19;99501.47;;;33.97;32.00
60019;BME280;45870;42.528;26.740;2022-07-25T04:45:45;99499.50;;;34.08;32.03
60019;BME280;45870;42.528;26.740;2022-07-25T04:48:13;99444.97;;;33.67;31.89
60019;BME280;45870;42.528;26.740;2022-07-25T04:50:38;99503.97;;;33.37;32.82
60019;BME280;45870;42.528;26.740;2022-07-25T04:53:04;99514.88;;;34.88;31.37
60019;BME280;45870;42.528;26.740;2022-07-25T04:55:31;99520.69;;;34.02;32.21
60019;BME280;45870;42.528;26.740;2022-07-25T04:57:58;99438.38;;;33.27;31.97
60019;BME280;45870;42.528;26.740;2022-07-25T05:00:24;99533.69;;;34.98;30.38
60019;BME280;45870;42.528;26.740;2022-07-25T05:02:50;99534.50;;;34.74;30.75
60019;BME280;45870;42.528;26.740;2022-07-25T05:05:17;99535.09;;;34.00;31.93
60019;BME280;45870;42.528;26.740;2022-07-25T05:07:42;99539.84;;;33.93;31.86
60019;BME280;45870;42.528;26.740;2022-07-25T05:10:08;99549.69;;;34.63;30.99
60019;BME280;45870;42.528;26.740;2022-07-25T05:12:34;99550.13;;;33.68;32.58
60019;BME280;45870;42.528;26.740;2022-07-25T05:15:01;99557.44;;;33.21;33.75
60019;BME280;45870;42.528;26.740;2022-07-25T05:17:27;99567.56;;;34.12;32.03
60019;BME280;45870;42.528;26.740;2022-07-25T05:19:52;99553.09;;;34.06;32.15
60019;BME280;45870;42.528;26.740;2022-07-25T05:22:18;99564.19;;;33.78;32.26
60019;BME280;45870;42.528;26.740;2022-07-25T05:24:44;99572.41;;;34.22;31.97
60019;BME280;45870;42.528;26.740;2022-07-25T05:27:10;99576.75;;;33.44;32.21
60019;BME280;45870;42.528;26.740;2022-07-25T05:29:35;99565.38;;;33.70;32.62
60019;BME280;45870;42.528;26.740;2022-07-25T05:32:01;99574.81;;;34.24;30.90
60019;BME280;45870;42.528;26.740;2022-07-25T05:34:27;99577.75;;;34.66;31.10
60019;BME280;45870;42.528;26.740;2022-07-25T05:36:52;99573.94;;;34.05;31.16
60019;BME280;45870;42.528;26.740;2022-07-25T05:39:18;99571.59;;;36.05;28.31
60019;BME280;45870;42.528;26.740;2022-07-25T05:41:45;99566.84;;;35.92;28.70
60019;BME280;45870;42.528;26.740;2022-07-25T05:44:12;99570.66;;;36.37;27.70
60019;BME280;45870;42.528;26.740;2022-07-25T05:46:38;99572.97;;;35.37;28.90
60019;BME280;45870;42.528;26.740;2022-07-25T05:49:05;99558.47;;;35.81;27.66
60019;BME280;45870;42.528;26.740;2022-07-25T05:51:31;99571.78;;;35.35;28.58
60019;BME280;45870;42.528;26.740;2022-07-25T05:53:57;99567.38;;;35.13;29.69
60019;BME280;45870;42.528;26.740;2022-07-25T05:56:23;99421.09;;;35.03;27.28
60019;BME280;45870;42.528;26.740;2022-07-25T05:58:49;99565.88;;;36.34;27.26
60019;BME280;45870;42.528;26.740;2022-07-25T06:01:15;99581.41;;;35.34;28.15
60019;BME280;45870;42.528;26.740;2022-07-25T06:03:42;99584.84;;;36.12;27.37
60019;BME280;45870;42.528;26.740;2022-07-25T06:06:08;99582.88;;;34.39;29.75
60019;BME280;45870;42.528;26.740;2022-07-25T06:08:35;99556.75;;;36.09;28.16
60019;BME280;45870;42.528;26.740;2022-07-25T06:11:01;99573.03;;;37.52;26.35
60019;BME280;45870;42.528;26.740;2022-07-25T06:13:31;99574.59;;;36.57;26.67
60019;BME280;45870;42.528;26.740;2022-07-25T06:15:57;99565.47;;;37.79;25.36
60019;BME280;45870;42.528;26.740;2022-07-25T06:18:23;99570.75;;;40.79;21.19
60019;BME280;45870;42.528;26.740;2022-07-25T06:20:49;99551.88;;;37.74;25.44
60019;BME280;45870;42.528;26.740;2022-07-25T06:23:16;99569.75;;;36.61;26.24
60019;BME280;45870;42.528;26.740;2022-07-25T06:25:42;99558.91;;;37.56;24.81
60019;BME280;45870;42.528;26.740;2022-07-25T06:28:08;99530.75;;;39.27;23.15
60019;BME280;45870;42.528;26.740;2022-07-25T06:30:33;99551.25;;;38.24;23.99
60019;BME280;45870;42.528;26.740;2022-07-25T06:32:59;99531.84;;;37.65;24.52
60019;BME280;45870;42.528;26.740;2022-07-25T06:35:25;99543.59;;;37.19;25.52
60019;BME280;45870;42.528;26.740;2022-07-25T06:37:51;99535.78;;;37.34;25.30
60019;BME280;45870;42.528;26.740;2022-07-25T06:40:17;99534.56;;;37.35;25.11
60019;BME280;45870;42.528;26.740;2022-07-25T06:42:44;99533.31;;;37.77;24.54
60019;BME280;45870;42.528;26.740;2022-07-25T06:45:12;99536.97;;;36.30;26.48
60019;BME280;45870;42.528;26.740;2022-07-25T06:47:39;99534.50;;;36.39;26.96
60019;BME280;45870;42.528;26.740;2022-07-25T06:50:06;99487.00;;;36.62;25.74
60019;BME280;45870;42.528;26.740;2022-07-25T06:52:32;99532.38;;;38.21;24.64
60019;BME280;45870;42.528;26.740;2022-07-25T06:54:58;99525.50;;;39.02;23.80
60019;BME280;45870;42.528;26.740;2022-07-25T06:57:24;99518.69;;;39.00;22.73
60019;BME280;45870;42.528;26.740;2022-07-25T06:59:49;99530.84;;;37.45;25.35
60019;BME280;45870;42.528;26.740;2022-07-25T07:02:15;99517.75;;;36.83;25.33
60019;BME280;45870;42.528;26.740;2022-07-25T07:04:41;99520.56;;;32.24;32.43
60019;BME280;45870;42.528;26.740;2022-07-25T07:07:07;99433.06;;;32.57;31.93
60019;BME280;45870;42.528;26.740;2022-07-25T07:09:32;99495.97;;;34.29;29.95
60019;BME280;45870;42.528;26.740;2022-07-25T07:11:59;99509.56;;;35.54;27.96
60019;BME280;45870;42.528;26.740;2022-07-25T07:14:24;99513.19;;;35.51;27.72
60019;BME280;45870;42.528;26.740;2022-07-25T07:16:50;99511.63;;;35.39;27.42
60019;BME280;45870;42.528;26.740;2022-07-25T07:19:16;99523.16;;;34.18;29.35
60019;BME280;45870;42.528;26.740;2022-07-25T07:21:42;99514.88;;;35.13;28.11
60019;BME280;45870;42.528;26.740;2022-07-25T07:24:08;99493.59;;;35.08;28.50
60019;BME280;45870;42.528;26.740;2022-07-25T07:26:34;99517.53;;;35.84;27.99
60019;BME280;45870;42.528;26.740;2022-07-25T07:28:59;99512.63;;;35.98;26.62
60019;BME280;45870;42.528;26.740;2022-07-25T07:31:27;99520.03;;;36.40;26.76
60019;BME280;45870;42.528;26.740;2022-07-25T07:33:53;99527.22;;;36.48;26.66
60019;BME280;45870;42.528;26.740;2022-07-25T07:36:19;99524.63;;;36.75;26.22
60019;BME280;45870;42.528;26.740;2022-07-25T07:38:45;99524.66;;;37.61;26.07
60019;BME280;45870;42.528;26.740;2022-07-25T07:41:10;99489.91;;;34.05;30.79
60019;BME280;45870;42.528;26.740;2022-07-25T07:43:37;99516.84;;;35.09;28.49
60019;BME280;45870;42.528;26.740;2022-07-25T07:46:02;99522.38;;;35.73;27.71
60019;BME280;45870;42.528;26.740;2022-07-25T07:48:32;99523.84;;;36.05;26.89
60019;BME280;45870;42.528;26.740;2022-07-25T07:50:59;99532.06;;;36.44;27.21
60019;BME280;45870;42.528;26.740;2022-07-25T07:53:25;99528.47;;;36.40;27.07
60019;BME280;45870;42.528;26.740;2022-07-25T07:56:11;99520.34;;;35.80;27.73
60019;BME280;45870;42.528;26.740;2022-07-25T07:58:37;99513.19;;;38.39;25.51
60019;BME280;45870;42.528;26.740;2022-07-25T08:01:04;99516.34;;;37.06;26.44
60019;BME280;45870;42.528;26.740;2022-07-25T08:03:31;99513.97;;;35.66;27.53
60019;BME280;45870;42.528;26.740;2022-07-25T08:05:57;99501.00;;;35.96;27.78
60019;BME280;45870;42.528;26.740;2022-07-25T08:08:24;99511.34;;;36.79;27.20
60019;BME280;45870;42.528;26.740;2022-07-25T08:10:50;99485.50;;;37.70;27.20
60019;BME280;45870;42.528;26.740;2022-07-25T08:13:21;99508.72;;;36.51;28.20
60019;BME280;45870;42.528;26.740;2022-07-25T08:15:49;99506.56;;;36.03;28.80
60019;BME280;45870;42.528;26.740;2022-07-25T08:18:16;99521.22;;;35.45;28.12
60019;BME280;45870;42.528;26.740;2022-07-25T08:20:42;99525.22;;;35.55;29.63
60019;BME280;45870;42.528;26.740;2022-07-25T08:23:09;99526.09;;;35.27;30.52
60019;BME280;45870;42.528;26.740;2022-07-25T08:25:38;99519.56;;;37.08;27.92
60019;BME280;45870;42.528;26.740;2022-07-25T08:28:06;99516.38;;;37.02;28.25
60019;BME280;45870;42.528;26.740;2022-07-25T08:30:33;99512.97;;;37.62;26.95
60019;BME280;45870;42.528;26.740;2022-07-25T08:33:02;99513.25;;;35.26;30.54
60019;BME280;45870;42.528;26.740;2022-07-25T08:35:29;99517.50;;;35.87;29.40
60019;BME280;45870;42.528;26.740;2022-07-25T08:37:55;99521.03;;;36.05;29.23
60019;BME280;45870;42.528;26.740;2022-07-25T08:40:24;99523.47;;;35.93;29.78
60019;BME280;45870;42.528;26.740;2022-07-25T08:42:50;99459.19;;;36.16;28.82
60019;BME280;45870;42.528;26.740;2022-07-25T08:45:17;99504.28;;;35.84;29.94
60019;BME280;45870;42.528;26.740;2022-07-25T08:47:46;99502.75;;;35.55;30.46
60019;BME280;45870;42.528;26.740;2022-07-25T08:50:14;99501.66;;;35.14;30.74
60019;BME280;45870;42.528;26.740;2022-07-25T08:52:47;99476.22;;;36.46;28.50
60019;BME280;45870;42.528;26.740;2022-07-25T08:55:19;99511.91;;;36.53;29.32
60019;BME280;45870;42.528;26.740;2022-07-25T08:57:47;99499.75;;;36.12;29.27
60019;BME280;45870;42.528;26.740;2022-07-25T09:00:18;99510.78;;;35.64;29.42
60019;BME280;45870;42.528;26.740;2022-07-25T09:02:54;99510.78;;;35.67;29.74
60019;BME280;45870;42.528;26.740;2022-07-25T09:05:21;99510.50;;;36.82;28.48
60019;BME280;45870;42.528;26.740;2022-07-25T09:07:47;99522.66;;;36.10;28.19
60019;BME280;45870;42.528;26.740;2022-07-25T09:10:16;99520.72;;;35.82;28.18
60019;BME280;45870;42.528;26.740;2022-07-25T09:17:55;99515.31;;;36.85;28.61
60019;BME280;45870;42.528;26.740;2022-07-25T09:20:22;99509.47;;;35.82;29.49
60019;BME280;45870;42.528;26.740;2022-07-25T09:22:48;99496.22;;;35.90;28.70
60019;BME280;45870;42.528;26.740;2022-07-25T09:25:24;99509.75;;;36.20;29.31
60019;BME280;45870;42.528;26.740;2022-07-25T09:27:51;99516.13;;;36.27;29.55
60019;BME280;45870;42.528;26.740;2022-07-25T09:30:17;99523.53;;;37.14;27.34
60019;BME280;45870;42.528;26.740;2022-07-25T09:32:43;99510.03;;;35.38;29.66
60019;BME280;45870;42.528;26.740;2022-07-25T09:35:09;99501.53;;;36.46;28.50
60019;BME280;45870;42.528;26.740;2022-07-25T09:37:35;99512.66;;;37.16;28.27
60019;BME280;45870;42.528;26.740;2022-07-25T09:40:00;99484.06;;;36.07;29.35
60019;BME280;45870;42.528;26.740;2022-07-25T09:42:29;99498.41;;;36.89;28.13
60019;BME280;45870;42.528;26.740;2022-07-25T09:45:03;99499.66;;;36.26;28.84
60019;BME280;45870;42.528;26.740;2022-07-25T09:47:31;99472.41;;;36.74;27.89
60019;BME280;45870;42.528;26.740;2022-07-25T09:49:57;99503.84;;;36.62;28.55
60019;BME280;45870;42.528;26.740;2022-07-25T09:52:23;99505.78;;;36.72;27.66
60019;BME280;45870;42.528;26.740;2022-07-25T09:54:48;99503.25;;;38.58;25.34
60019;BME280;45870;42.528;26.740;2022-07-25T09:57:14;99509.78;;;36.75;27.95
60019;BME280;45870;42.528;26.740;2022-07-25T09:59:41;99501.19;;;36.41;27.76
60019;BME280;45870;42.528;26.740;2022-07-25T10:05:38;99497.66;;;37.97;26.66
60019;BME280;45870;42.528;26.740;2022-07-25T10:08:09;99495.91;;;37.01;27.37
60019;BME280;45870;42.528;26.740;2022-07-25T10:10:38;99484.47;;;37.57;26.46
60019;BME280;45870;42.528;26.740;2022-07-25T10:13:13;99463.31;;;36.56;28.76
60019;BME280;45870;42.528;26.740;2022-07-25T10:15:52;99467.16;;;36.21;27.58
60019;BME280;45870;42.528;26.740;2022-07-25T10:18:20;99480.50;;;37.54;26.30
60019;BME280;45870;42.528;26.740;2022-07-25T10:20:48;99492.13;;;37.56;26.04
60019;BME280;45870;42.528;26.740;2022-07-25T10:23:19;99463.56;;;37.17;26.45
60019;BME280;45870;42.528;26.740;2022-07-25T10:25:45;99484.66;;;37.01;26.54
60019;BME280;45870;42.528;26.740;2022-07-25T10:28:17;99472.31;;;37.63;25.93
60019;BME280;45870;42.528;26.740;2022-07-25T10:30:44;99466.03;;;37.52;25.69
60019;BME280;45870;42.528;26.740;2022-07-25T10:33:13;99461.31;;;37.38;25.54
60019;BME280;45870;42.528;26.740;2022-07-25T10:35:42;99463.84;;;37.29;26.79
60019;BME280;45870;42.528;26.740;2022-07-25T10:38:09;99453.16;;;35.02;29.61
60019;BME280;45870;42.528;26.740;2022-07-25T10:40:41;99459.00;;;35.65;29.95
60019;BME280;45870;42.528;26.740;2022-07-25T10:43:20;99452.63;;;36.85;27.96
60019;BME280;45870;42.528;26.740;2022-07-25T10:45:56;99458.00;;;37.81;26.80
60019;BME280;45870;42.528;26.740;2022-07-25T10:48:31;99416.69;;;37.03;27.60
60019;BME280;45870;42.528;26.740;2022-07-25T10:51:06;99450.91;;;38.53;26.00
60019;BME280;45870;42.528;26.740;2022-07-25T10:53:42;99460.22;;;36.40;28.98
60019;BME280;45870;42.528;26.740;2022-07-25T10:56:13;99454.50;;;35.88;30.28
60019;BME280;45870;42.528;26.740;2022-07-25T11:01:18;99436.63;;;37.19;27.89
60019;BME280;45870;42.528;26.740;2022-07-25T11:03:44;99458.28;;;35.43;30.17
60019;BME280;45870;42.528;26.740;2022-07-25T11:06:12;99297.81;;;34.43;30.09
60019;BME280;45870;42.528;26.740;2022-07-25T11:08:37;99426.69;;;37.08;28.04
60019;BME280;45870;42.528;26.740;2022-07-25T11:11:03;99437.00;;;36.80;28.29
60019;BME280;45870;42.528;26.740;2022-07-25T11:13:29;99442.75;;;36.08;29.73
60019;BME280;45870;42.528;26.740;2022-07-25T11:16:00;99448.31;;;35.31;30.65
60019;BME280;45870;42.528;26.740;2022-07-25T11:18:37;99425.09;;;34.99;31.31
60019;BME280;45870;42.528;26.740;2022-07-25T11:21:05;99426.22;;;35.37;30.39
60019;BME280;45870;42.528;26.740;2022-07-25T11:23:32;99434.34;;;36.00;30.03
60019;BME280;45870;42.528;26.740;2022-07-25T11:26:05;99435.13;;;36.08;30.04
60019;BME280;45870;42.528;26.740;2022-07-25T11:28:46;99426.69;;;35.21;31.09
60019;BME280;45870;42.528;26.740;2022-07-25T11:31:13;99422.25;;;36.14;29.29
60019;BME280;45870;42.528;26.740;2022-07-25T11:33:41;99431.31;;;36.87;28.30
60019;BME280;45870;42.528;26.740;2022-07-25T11:36:09;99420.63;;;37.09;28.87
60019;BME280;45870;42.528;26.740;2022-07-25T11:38:36;99425.59;;;35.91;29.18
60019;BME280;45870;42.528;26.740;2022-07-25T11:41:03;99415.16;;;36.47;28.75
60019;BME280;45870;42.528;26.740;2022-07-25T11:43:28;99434.72;;;35.12;31.03
60019;BME280;45870;42.528;26.740;2022-07-25T11:45:56;99429.38;;;35.60;30.19
60019;BME280;45870;42.528;26.740;2022-07-25T11:48:29;99426.31;;;36.10;29.84
60019;BME280;45870;42.528;26.740;2022-07-25T11:50:55;99422.28;;;36.03;29.86
60019;BME280;45870;42.528;26.740;2022-07-25T11:53:21;99423.75;;;35.64;30.64
60019;BME280;45870;42.528;26.740;2022-07-25T11:55:47;99410.53;;;36.26;29.66
60019;BME280;45870;42.528;26.740;2022-07-25T11:58:13;99417.00;;;36.20;28.60
60019;BME280;45870;42.528;26.740;2022-07-25T12:00:45;99391.06;;;34.97;30.21
60019;BME280;45870;42.528;26.740;2022-07-25T12:03:13;99424.72;;;35.00;30.74
60019;BME280;45870;42.528;26.740;2022-07-25T12:05:39;99415.69;;;35.58;29.51
60019;BME280;45870;42.528;26.740;2022-07-25T12:08:13;99418.28;;;35.07;31.34
60019;BME280;45870;42.528;26.740;2022-07-25T12:10:41;99413.91;;;34.35;31.99
60019;BME280;45870;42.528;26.740;2022-07-25T12:13:08;99399.91;;;34.32;31.41
60019;BME280;45870;42.528;26.740;2022-07-25T12:15:37;99389.44;;;35.14;30.22
60019;BME280;45870;42.528;26.740;2022-07-25T12:18:03;99402.38;;;35.80;28.90
60019;BME280;45870;42.528;26.740;2022-07-25T12:20:37;99405.28;;;36.28;29.05
60019;BME280;45870;42.528;26.740;2022-07-25T12:23:06;99387.94;;;36.81;28.05
60019;BME280;45870;42.528;26.740;2022-07-25T12:25:35;99385.53;;;36.35;27.70
60019;BME280;45870;42.528;26.740;2022-07-25T12:28:02;99395.41;;;36.98;26.93
60019;BME280;45870;42.528;26.740;2022-07-25T12:30:28;99398.94;;;36.21;28.95
60019;BME280;45870;42.528;26.740;2022-07-25T12:32:55;99397.03;;;36.00;28.33
60019;BME280;45870;42.528;26.740;2022-07-25T12:35:21;99390.59;;;35.23;30.16
60019;BME280;45870;42.528;26.740;2022-07-25T12:37:47;99387.31;;;36.63;28.56
60019;BME280;45870;42.528;26.740;2022-07-25T12:40:14;99384.69;;;39.27;24.44
60019;BME280;45870;42.528;26.740;2022-07-25T12:42:42;99393.19;;;36.31;28.86
60019;BME280;45870;42.528;26.740;2022-07-25T12:45:09;99387.78;;;36.06;28.55
60019;BME280;45870;42.528;26.740;2022-07-25T12:47:36;99387.03;;;35.99;28.19
60019;BME280;45870;42.528;26.740;2022-07-25T12:50:02;99379.84;;;36.90;27.42
60019;BME280;45870;42.528;26.740;2022-07-25T12:52:29;99383.25;;;37.12;27.54
60019;BME280;45870;42.528;26.740;2022-07-25T12:54:56;99379.97;;;37.47;26.66
60019;BME280;45870;42.528;26.740;2022-07-25T12:57:21;99376.16;;;38.18;25.67
60019;BME280;45870;42.528;26.740;2022-07-25T12:59:47;99372.28;;;36.84;27.11